Weather History for Osceola Municipal, IA

Change the Weather History Date:

Thursday, March 27, 2014

  Actual Average (KLWD) Record (KLWD)
Temperature  
Mean Temperature 44 °F 45 °F  
Max Temperature 54 °F 55 °F 80 °F (1989)
Min Temperature 34 °F 35 °F 17 °F (1970)
Degree Days  
Heating Degree Days 21 20  
Month to date heating degree days 696  
Since 1 July heating degree days 5413  
Cooling Degree Days 0 0  
Month to date cooling degree days 0  
Year to date cooling degree days 0  
Moisture  
Dew Point 41 °F    
Average Humidity 91    
Maximum Humidity 95    
Minimum Humidity 85    
Precipitation  
Precipitation 0.35 in 0.09 in 0.80 in (1975)
Month to date precipitation 1.89  
Sea Level Pressure  
Sea Level Pressure 29.50 in    
Wind  
Wind Speed 16 mph (South)    
Max Wind Speed 28 mph    
Max Gust Speed 37 mph    
Visibility 6 miles    
Events Rain    
T = Trace of Precipitation, MM = Missing Value Source: NWS Daily Summary

Daily Weather History Graph

Daily Weather History Graph

Search for Another Location

Airport:

Trip Planner

Search our weather history database for the weather conditions in past years. The results will help you decide how hot, cold, wet, or windy it might be!

Date:

Astronomy

Mar. 27, 2014 Rise Set
Actual Time 7:06 AM CDT 7:34 PM CDT
Civil Twilight 6:38 AM CDT 8:02 PM CDT
Nautical Twilight 6:06 AM CDT 8:34 PM CDT
Astronomical Twilight 5:33 AM CDT 9:08 PM CDT
Moon 4:59 AM CDT (3/27) 4:21 PM CDT (3/27)
Length of Visible Light 13h 23m
Length of Day
12h 28m
Waning Crescent, 13% of the Moon is Illuminated
Mar 27
Waning Crescent
Mar 30
New
Apr 7
First Quarter
Apr 15
Full
Apr 22
Last Quarter

Hourly Weather History & Observations

Time (CDT) Temp. Windchill Dew Point Humidity Pressure Visibility Wind Dir Wind Speed Gust Speed Precip Events Conditions
12:15 AM 40.5 °F 31.8 °F 37.6 °F 89% 29.73 in 10.0 mi South 17.3 mph 23.0 mph N/A   Light Drizzle
12:35 AM 40.3 °F 32.2 °F 37.4 °F 89% 29.72 in 7.0 mi South 15.0 mph 24.2 mph N/A Rain Light Rain
12:55 AM 40.1 °F 31.3 °F 37.6 °F 91% 29.71 in 10.0 mi SSE 17.3 mph 21.9 mph N/A   Light Drizzle
1:15 AM 40.1 °F 31.6 °F 37.4 °F 90% 29.70 in 5.0 mi SSE 16.1 mph - N/A   Overcast
1:35 AM 40.1 °F 31.0 °F 37.6 °F 91% 29.69 in 7.0 mi South 18.4 mph 21.9 mph N/A   Overcast
1:55 AM 40.1 °F 32.0 °F 37.6 °F 91% 29.68 in 7.0 mi South 15.0 mph 24.2 mph N/A   Overcast
2:15 AM 40.1 °F 32.4 °F 37.6 °F 91% 29.66 in 7.0 mi South 13.8 mph 21.9 mph N/A   Overcast
2:35 AM 40.1 °F 32.0 °F 37.6 °F 91% 29.65 in 10.0 mi SSE 15.0 mph 21.9 mph N/A   Overcast
2:55 AM 40.1 °F 32.0 °F 37.6 °F 91% 29.64 in 7.0 mi SSE 15.0 mph 19.6 mph N/A   Overcast
3:15 AM 39.6 °F 31.7 °F 37.4 °F 92% 29.63 in 7.0 mi SSE 13.8 mph 23.0 mph N/A   Overcast
3:35 AM 39.4 °F 31.1 °F 37.4 °F 93% 29.62 in 7.0 mi SSE 15.0 mph - N/A   Overcast
3:55 AM 39.4 °F 31.4 °F 37.4 °F 93% 29.60 in 5.0 mi SSE 13.8 mph 18.4 mph N/A   Overcast
4:15 AM 39.4 °F 31.4 °F 37.4 °F 93% 29.59 in 5.0 mi SSE 13.8 mph - N/A   Overcast
4:35 AM 39.4 °F 31.8 °F 37.6 °F 93% 29.58 in 5.0 mi SSE 12.7 mph - N/A   Overcast
4:55 AM 39.4 °F 31.1 °F 37.6 °F 93% 29.57 in 4.0 mi SSE 15.0 mph - N/A   Overcast
5:15 AM 39.4 °F 31.8 °F 37.8 °F 94% 29.56 in 4.0 mi SSE 12.7 mph - N/A   Overcast
5:35 AM 39.6 °F 32.1 °F 37.9 °F 94% 29.56 in 3.0 mi SSE 12.7 mph - N/A   Overcast
5:55 AM 39.6 °F 31.7 °F 38.3 °F 95% 29.55 in 3.0 mi SSE 13.8 mph 18.4 mph N/A   Overcast
6:15 AM 39.6 °F 32.1 °F 38.3 °F 95% 29.54 in 3.0 mi SSE 12.7 mph - N/A   Overcast
6:35 AM 39.9 °F 32.9 °F 38.5 °F 95% 29.53 in 4.0 mi SSE 11.5 mph 18.4 mph N/A   Overcast
6:55 AM 40.1 °F 32.7 °F 38.5 °F 94% 29.54 in 4.0 mi SSE 12.7 mph 20.7 mph N/A   Overcast
7:15 AM 40.1 °F 32.4 °F 38.7 °F 95% 29.54 in 4.0 mi SSE 13.8 mph 19.6 mph N/A   Overcast
7:35 AM 40.1 °F 32.4 °F 38.7 °F 95% 29.53 in 3.0 mi SSE 13.8 mph - N/A   Overcast
7:55 AM 40.5 °F 32.8 °F 39.0 °F 95% 29.52 in 2.5 mi SSE 13.8 mph 19.6 mph N/A   Overcast
8:15 AM 40.8 °F 33.3 °F 39.2 °F 94% 29.51 in 2.0 mi SSE 13.8 mph - N/A   Overcast
8:35 AM 41.2 °F 33.0 °F 39.9 °F 95% 29.51 in 4.0 mi SSE 16.1 mph 19.6 mph N/A   Overcast
8:55 AM 42.1 °F 33.9 °F 40.6 °F 95% 29.50 in 4.0 mi SSE 17.3 mph 25.3 mph N/A   Overcast
9:15 AM 43.0 °F 35.4 °F 41.5 °F 95% 29.49 in 4.0 mi SSE 16.1 mph 25.3 mph N/A   Overcast
9:35 AM 43.2 °F 35.3 °F 41.9 °F 95% 29.47 in 3.0 mi SSE 17.3 mph 24.2 mph N/A   Overcast
9:55 AM 43.9 °F 35.9 °F 42.4 °F 95% 29.47 in 5.0 mi SSE 18.4 mph 21.9 mph N/A   Overcast
10:15 AM 44.6 °F 37.2 °F 43.0 °F 94% 29.46 in 5.0 mi SSE 17.3 mph 24.2 mph N/A   Overcast
10:35 AM 45.0 °F 37.6 °F 43.5 °F 95% 29.46 in 5.0 mi SSE 17.3 mph 24.2 mph N/A   Overcast
10:55 AM 45.5 °F 38.9 °F 43.7 °F 93% 29.45 in 7.0 mi SSE 15.0 mph 21.9 mph N/A   Overcast
11:15 AM 46.0 °F 39.3 °F 43.9 °F 92% 29.44 in 5.0 mi SSE 16.1 mph 23.0 mph N/A   Overcast
11:35 AM 46.8 °F - 44.6 °F 92% 29.43 in 5.0 mi SSE 17.3 mph 21.9 mph N/A   Overcast
11:55 AM 46.9 °F - 44.8 °F 92% 29.42 in 3.0 mi SSE 16.1 mph 23.0 mph N/A   Overcast
12:15 PM 46.8 °F - 44.8 °F 93% 29.42 in 3.0 mi SSE 16.1 mph 23.0 mph N/A   Overcast
12:35 PM 46.6 °F - 44.6 °F 93% 29.41 in 3.0 mi SSE 17.3 mph 24.2 mph N/A   Overcast
12:55 PM 46.6 °F - 44.8 °F 93% 29.40 in 3.0 mi SSE 17.3 mph 23.0 mph N/A   Overcast
1:15 PM 47.1 °F - 45.3 °F 93% 29.39 in 4.0 mi SSE 12.7 mph 17.3 mph N/A   Overcast
1:35 PM 47.5 °F - 45.7 °F 93% 29.38 in 5.0 mi SSE 12.7 mph 18.4 mph N/A   Overcast
1:55 PM 48.4 °F - 46.6 °F 93% 29.37 in 5.0 mi SSE 15.0 mph - N/A   Overcast
2:15 PM 50.9 °F - 49.1 °F 94% 29.35 in 5.0 mi SSE 15.0 mph 20.7 mph N/A   Overcast
2:35 PM 52.2 °F - 49.5 °F 91% 29.34 in 7.0 mi SSE 17.3 mph 25.3 mph N/A   Overcast
2:55 PM 53.8 °F - 50.5 °F 89% 29.32 in 5.0 mi SSE 16.1 mph 24.2 mph N/A   Overcast
3:15 PM 54.1 °F - 50.5 °F 88% 29.31 in 7.0 mi SSE 12.7 mph 24.2 mph N/A   Overcast
3:35 PM 54.7 °F - 50.5 °F 86% 29.30 in 7.0 mi SSE 20.7 mph 26.5 mph N/A   Overcast
3:55 PM 54.5 °F - 50.2 °F 85% 29.29 in 7.0 mi SSE 17.3 mph 23.0 mph N/A   Mostly Cloudy
4:15 PM 53.4 °F - 50.0 °F 88% 29.27 in 10.0 mi SE 13.8 mph 19.6 mph N/A   Light Drizzle
4:35 PM 52.7 °F - 49.8 °F 90% 29.29 in 3.0 mi South 13.8 mph - 0.12 in Rain Heavy Rain
4:55 PM 52.5 °F - 49.8 °F 91% 29.28 in 4.0 mi SW 16.1 mph - 0.35 in Rain Light Rain
5:15 PM 54.1 °F - 50.5 °F 88% 29.27 in 7.0 mi South 10.4 mph - N/A   Mostly Cloudy
5:35 PM 53.8 °F - 50.7 °F 89% 29.28 in 7.0 mi South 11.5 mph 18.4 mph N/A   Overcast
5:55 PM 50.7 °F - 47.5 °F 89% 29.30 in 5.0 mi SW 25.3 mph 32.2 mph N/A   Overcast
6:15 PM 46.6 °F - 43.5 °F 89% 29.33 in 7.0 mi SW 27.6 mph 33.4 mph N/A   Overcast
6:35 PM 41.7 °F 31.2 °F 38.7 °F 89% 29.36 in 7.0 mi WSW 27.6 mph 36.8 mph N/A   Overcast
6:55 PM 40.3 °F 29.5 °F 37.6 °F 90% 29.39 in 7.0 mi WSW 26.5 mph 33.4 mph N/A   Overcast
7:15 PM 40.1 °F 29.7 °F 37.6 °F 91% 29.41 in 3.0 mi WSW 24.2 mph 34.5 mph N/A   Overcast
7:55 PM 40.1 °F 29.9 °F 38.1 °F 93% 29.45 in 5.0 mi West 23.0 mph 31.1 mph N/A   Overcast
8:15 PM 41.0 °F 31.6 °F 38.3 °F 90% 29.48 in 10.0 mi West 20.7 mph 28.8 mph N/A   Overcast
8:35 PM 41.0 °F 31.1 °F 37.6 °F 88% 29.51 in 7.0 mi WNW 23.0 mph 29.9 mph N/A   Overcast
8:55 PM 40.1 °F 30.5 °F 37.0 °F 89% 29.54 in 5.0 mi West 20.7 mph 31.1 mph N/A   Overcast
9:15 PM 39.0 °F 28.5 °F 35.6 °F 88% 29.56 in 10.0 mi West 23.0 mph 33.4 mph N/A   Overcast
9:35 PM 37.6 °F 25.9 °F 33.8 °F 86% 29.58 in 10.0 mi West 26.5 mph 34.5 mph N/A   Overcast
9:55 PM 36.3 °F 25.2 °F 32.5 °F 86% 29.62 in 10.0 mi West 21.9 mph 31.1 mph N/A   Overcast
10:15 PM 35.6 °F 23.7 °F 32.0 °F 87% 29.63 in 10.0 mi WNW 24.2 mph 31.1 mph N/A   Overcast
10:35 PM 34.9 °F 22.7 °F 32.0 °F 89% 29.65 in 10.0 mi WNW 24.2 mph 29.9 mph N/A   Overcast
10:55 PM 34.7 °F 23.1 °F 31.6 °F 89% 29.66 in 10.0 mi WNW 21.9 mph 29.9 mph N/A   Overcast
11:15 PM 34.3 °F 22.6 °F 31.5 °F 89% 29.68 in 10.0 mi WNW 21.9 mph 29.9 mph N/A   Overcast
11:35 PM 34.2 °F 22.3 °F 31.1 °F 89% 29.69 in 10.0 mi WNW 21.9 mph 31.1 mph N/A   Overcast
11:55 PM 34.0 °F 23.0 °F 31.1 °F 89% 29.71 in 10.0 mi WNW 18.4 mph 28.8 mph N/A   Overcast